Hensel, North Dakota
Current Conditions -  °F | °C
As of 8:35 PM on Friday 24 Oct 2014 (Local Time) from K2C8 Reporting Station
Clear Clear  
Wind Chill: 57°   Ceiling: Unl
Heat Index: 57°   Visibility: 10mi
Dew Point: 36°   Wind: 15mph
Humidity: 44%   Direction: 280°W
Pressure: 29.81"   Gusts: 23mph
Location:  48.69°N, 97.67°W
Report Text: K2C8 250135Z AUTO 28013G20KT 10SM CLR 14/02 A2981 RMK AO2
Loading
Personal Weather Stations






























Interactive Weather Map
Tropical Storm Tracking
New forecast layout! Learn more

10-Day Weather Forecast

Advertisements
Track Severe Weather on mobile